Time;durP1;ratioP1;P1;durP2;ratioP2;P2;SDS_P1;SDS_P2;PMS_P1;PMS_P2;Temp;Humidity;BMP_temperature;BMP_pressure;BME280_temperature;BME280_humidity;BME280_pressure;Samples;Min_cycle;Max_cycle;Signal;HPM_P1;HPM_P2
2022/04/04 00:00:16;;;;;;;11.13;8.63;;;;;;;-0.46;100.00;96672.34;5071340;28;20517;-54
2022/04/04 00:02:44;;;;;;;11.48;9.30;;;;;;;-0.73;100.00;96672.69;5069681;28;20072;-59
2022/04/04 00:05:12;;;;;;;11.43;9.10;;;;;;;-0.51;100.00;96682.09;5070935;28;20561;-60
2022/04/04 00:07:41;;;;;;;16.55;9.13;;;;;;;-0.43;100.00;96677.38;5068973;28;20619;-58
2022/04/04 00:10:09;;;;;;;11.50;8.68;;;;;;;-0.32;100.00;96669.09;5068605;28;20075;-59
2022/04/04 00:12:39;;;;;;;10.68;8.68;;;;;;;-0.70;100.00;96669.13;5070881;28;20568;-59
2022/04/04 00:15:08;;;;;;;13.00;9.50;;;;;;;-0.91;100.00;96668.38;5069891;28;20091;-59
2022/04/04 00:17:36;;;;;;;15.07;9.13;;;;;;;-0.92;100.00;96660.69;5072345;28;20092;-58
2022/04/04 00:20:07;;;;;;;12.05;9.57;;;;;;;-0.60;100.00;96665.22;5067976;28;20388;-57
2022/04/04 00:22:35;;;;;;;;;;;;;;;-0.61;100.00;96668.72;5069146;28;20580;-58
2022/04/04 00:25:04;;;;;;;11.15;9.25;;;;;;;-0.99;100.00;96665.28;5069178;28;19971;-59
2022/04/04 00:27:32;;;;;;;11.65;8.45;;;;;;;-0.66;100.00;96662.91;5070707;28;20518;-60
2022/04/04 00:30:02;;;;;;;11.88;8.88;;;;;;;-0.65;100.00;96664.59;5068233;28;20099;-60
2022/04/04 00:32:30;;;;;;;14.52;9.80;;;;;;;-0.82;100.00;96661.94;5065326;28;20513;-59
2022/04/04 00:35:00;;;;;;;13.57;10.07;;;;;;;-0.69;100.00;96654.44;5067436;28;20064;-57
2022/04/04 00:37:28;;;;;;;14.13;10.37;;;;;;;-0.60;100.00;96649.66;5067916;28;20075;-59
2022/04/04 00:39:56;;;;;;;14.18;10.32;;;;;;;-0.60;100.00;96657.44;5068194;28;20083;-58
2022/04/04 00:42:25;;;;;;;13.25;9.65;;;;;;;-0.91;100.00;96654.59;5065850;28;20040;-60
2022/04/04 00:44:53;;;;;;;12.70;9.60;;;;;;;-0.73;100.00;96646.81;5072365;28;20094;-56
2022/04/04 00:47:23;;;;;;;11.75;9.85;;;;;;;-0.77;100.00;96647.88;5066093;28;20056;-59
2022/04/04 00:49:51;;;;;;;11.27;9.50;;;;;;;-0.69;100.00;96647.50;5066130;28;20058;-58
2022/04/04 00:52:19;;;;;;;11.93;9.32;;;;;;;-0.67;100.00;96643.09;5065221;28;20087;-58
2022/04/04 00:54:47;;;;;;;11.65;9.60;;;;;;;-0.96;100.00;96641.88;5067700;28;20060;-60
2022/04/04 00:57:17;;;;;;;10.65;8.80;;;;;;;-0.97;100.00;96638.41;5066593;28;20080;-57
2022/04/04 00:59:45;;;;;;;13.05;9.30;;;;;;;-1.10;100.00;96644.22;5067232;28;20076;-56
2022/04/04 01:02:13;;;;;;;11.20;9.25;;;;;;;-0.89;100.00;96645.03;5066188;28;20823;-57
2022/04/04 01:04:43;;;;;;;12.88;9.88;;;;;;;-0.89;100.00;96648.44;5067106;28;20068;-61
2022/04/04 01:07:11;;;;;;;11.43;9.53;;;;;;;-0.91;100.00;96636.47;5066267;28;20071;-60
2022/04/04 01:09:39;;;;;;;11.50;9.35;;;;;;;-0.83;100.00;96629.19;5067052;28;20552;-56
2022/04/04 01:12:09;;;;;;;10.93;8.85;;;;;;;-0.80;100.00;96634.22;5066832;28;20469;-56
2022/04/04 01:14:39;;;;;;;10.90;9.45;;;;;;;-0.78;100.00;96633.25;5067903;28;20091;-56
2022/04/04 01:17:07;;;;;;;12.75;9.80;;;;;;;-0.82;100.00;96629.13;5066205;28;20064;-57
2022/04/04 01:19:36;;;;;;;11.27;9.32;;;;;;;-0.77;100.00;96634.09;5066255;28;20060;-60
2022/04/04 01:22:07;;;;;;;11.55;8.93;;;;;;;-0.74;100.00;96637.38;5066456;28;20068;-60
2022/04/04 01:24:38;;;;;;;13.77;9.55;;;;;;;-0.82;100.00;96626.53;5066056;28;20470;-57
2022/04/04 01:27:07;;;;;;;10.70;9.60;;;;;;;-0.76;100.00;96613.31;5066112;28;20088;-60
2022/04/04 01:29:36;;;;;;;11.00;9.18;;;;;;;-0.84;100.00;96619.75;5066943;28;20091;-58
2022/04/04 01:32:06;;;;;;;11.27;9.65;;;;;;;-0.82;100.00;96616.19;5063123;28;20075;-57
2022/04/04 01:34:34;;;;;;;12.20;9.25;;;;;;;-0.76;100.00;96610.72;5066515;28;20068;-59
2022/04/04 01:37:03;;;;;;;11.50;9.10;;;;;;;-0.72;100.00;96614.84;5067053;28;20451;-60
2022/04/04 01:39:31;;;;;;;13.10;9.68;;;;;;;-0.69;100.00;96608.66;5065982;28;20071;-59
2022/04/04 01:42:01;;;;;;;11.20;9.60;;;;;;;-0.78;100.00;96606.53;5068015;28;20088;-60
2022/04/04 01:44:30;;;;;;;12.75;9.43;;;;;;;-0.84;100.00;96605.03;5047723;28;20068;-59
2022/04/04 01:46:59;;;;;;;14.82;9.85;;;;;;;-1.01;100.00;96605.81;5061778;28;21031;-58
2022/04/04 01:49:27;;;;;;;11.10;9.43;;;;;;;-0.94;100.00;96603.78;5067640;28;20447;-56
2022/04/04 01:51:55;;;;;;;12.13;8.90;;;;;;;-0.95;100.00;96609.88;5066969;28;20075;-59
2022/04/04 01:54:23;;;;;;;10.70;9.35;;;;;;;-1.01;100.00;96611.00;5070683;28;20080;-59
2022/04/04 01:56:51;;;;;;;14.70;9.73;;;;;;;-1.32;100.00;96608.97;5063445;28;20470;-59
2022/04/04 01:59:22;;;;;;;13.27;9.60;;;;;;;-1.58;100.00;96614.44;5066864;28;20071;-58
2022/04/04 02:01:51;;;;;;;12.77;10.25;;;;;;;-1.28;100.00;96604.47;5070605;28;20534;-58
2022/04/04 02:04:19;;;;;;;12.55;9.40;;;;;;;-1.33;100.00;96598.69;5071526;28;20071;-59
2022/04/04 02:06:48;;;;;;;11.13;9.02;;;;;;;-1.50;100.00;96599.44;5067085;28;20071;-58
2022/04/04 02:09:16;;;;;;;11.43;9.82;;;;;;;-1.68;100.00;96598.50;5071493;28;20080;-60
2022/04/04 02:11:45;;;;;;;12.88;9.68;;;;;;;-1.60;100.00;96596.41;5072049;28;20083;-60
2022/04/04 02:14:13;;;;;;;11.88;9.70;;;;;;;-1.57;100.00;96595.44;5071003;28;20423;-58
2022/04/04 02:16:44;;;;;;;12.18;9.80;;;;;;;-1.36;100.00;96593.66;5070359;28;20045;-60
2022/04/04 02:19:12;;;;;;;12.65;9.55;;;;;;;-1.36;100.00;96589.31;5064575;28;20064;-58
2022/04/04 02:21:40;;;;;;;14.63;10.30;;;;;;;-1.26;100.00;96585.41;5069736;28;20442;-59
2022/04/04 02:24:09;;;;;;;15.77;10.57;;;;;;;-1.20;100.00;96586.88;5063562;28;20079;-53
2022/04/04 02:26:37;;;;;;;14.63;10.13;;;;;;;-1.18;100.00;96581.63;5070385;28;20092;-60
2022/04/04 02:29:06;;;;;;;11.70;9.45;;;;;;;-1.14;100.00;96588.34;5074770;28;20071;-61
2022/04/04 02:31:34;;;;;;;12.55;9.80;;;;;;;-1.40;100.00;96587.78;5071866;28;20076;-60
2022/04/04 02:34:03;;;;;;;12.70;10.15;;;;;;;-1.25;100.00;96578.47;5079493;28;20071;-60
2022/04/04 02:36:32;;;;;;;12.90;10.20;;;;;;;-1.32;100.00;96577.91;5078317;28;20102;-57
2022/04/04 02:39:01;;;;;;;11.80;10.27;;;;;;;-1.48;100.00;96580.38;5070032;28;20086;-62
2022/04/04 02:41:29;;;;;;;13.65;9.88;;;;;;;-1.58;100.00;96580.81;5074513;28;20357;-60
2022/04/04 02:43:58;;;;;;;11.05;9.95;;;;;;;-1.74;100.00;96585.84;5072000;28;20075;-60
2022/04/04 02:46:26;;;;;;;11.88;10.27;;;;;;;-1.64;100.00;96575.94;5071482;28;21854;-58
2022/04/04 02:48:54;;;;;;;11.98;9.75;;;;;;;-1.52;100.00;96570.22;5070680;28;20079;-59
2022/04/04 02:51:24;;;;;;;14.32;10.40;;;;;;;-1.64;100.00;96565.59;5072365;28;20139;-59
2022/04/04 02:53:52;;;;;;;12.83;9.97;;;;;;;-1.52;100.00;96567.63;5069313;28;20168;-57
2022/04/04 02:56:31;;;;;;;12.70;9.75;;;;;;;-1.45;100.00;96563.84;5066537;28;20067;-57
2022/04/04 02:59:01;;;;;;;13.33;10.67;;;;;;;-1.72;100.00;96573.66;5066783;28;20057;-57
2022/04/04 03:01:30;;;;;;;13.65;10.55;;;;;;;-1.71;100.00;96567.63;5067725;28;20498;-60
2022/04/04 03:03:58;;;;;;;14.45;10.65;;;;;;;-1.77;100.00;96570.47;5077380;28;20056;-56
2022/04/04 03:06:28;;;;;;;13.77;10.85;;;;;;;-1.74;100.00;96566.00;5073259;28;20091;-59
2022/04/04 03:08:57;;;;;;;13.45;10.38;;;;;;;-1.89;100.00;96565.81;5079267;28;20060;-58
2022/04/04 03:11:25;;;;;;;13.30;10.82;;;;;;;-1.94;100.00;96564.25;5069111;28;20060;-59
2022/04/04 03:13:54;;;;;;;13.45;10.50;;;;;;;-2.13;100.00;96570.28;5073287;28;20517;-57
2022/04/04 03:16:22;;;;;;;15.55;10.52;;;;;;;-2.00;100.00;96566.28;5067264;28;20801;-59
2022/04/04 03:18:51;;;;;;;12.40;10.13;;;;;;;-2.12;100.00;96565.06;5066352;28;20537;-57
2022/04/04 03:21:19;;;;;;;12.48;10.13;;;;;;;-2.29;100.00;96573.50;5067442;28;20072;-57
2022/04/04 03:23:49;;;;;;;13.65;10.65;;;;;;;-2.16;100.00;96563.50;5068604;28;20469;-61
2022/04/04 03:26:17;;;;;;;13.30;10.85;;;;;;;-1.83;100.00;96561.22;5063088;28;20095;-58
2022/04/04 03:28:46;;;;;;;16.38;11.18;;;;;;;-2.03;100.00;96561.22;5069934;28;20075;-58
2022/04/04 03:31:15;;;;;;;14.85;10.63;;;;;;;-1.84;100.00;96556.13;5067089;28;20060;-57
2022/04/04 03:33:44;;;;;;;14.40;10.93;;;;;;;-1.98;100.00;96552.38;5070380;28;20457;-58
2022/04/04 03:36:13;;;;;;;11.77;10.38;;;;;;;-2.22;100.00;96554.28;5069750;28;20099;-58
2022/04/04 03:38:41;;;;;;;15.38;11.23;;;;;;;-2.20;100.00;96557.66;5072141;28;20072;-58
2022/04/04 03:41:11;;;;;;;16.15;10.75;;;;;;;-2.21;100.00;96552.53;5070587;28;20556;-60
2022/04/04 03:43:39;;;;;;;13.77;11.18;;;;;;;-2.38;100.00;96550.63;5071082;28;20437;-59
2022/04/04 03:46:07;;;;;;;14.40;10.45;;;;;;;-2.30;100.00;96551.19;5071002;28;20067;-59
2022/04/04 03:48:36;;;;;;;13.77;10.75;;;;;;;-2.26;100.00;96552.72;5066768;28;20462;-57
2022/04/04 03:51:04;;;;;;;15.95;11.68;;;;;;;-2.17;100.00;96549.75;5074730;28;20540;-61
2022/04/04 03:53:32;;;;;;;14.95;10.88;;;;;;;-2.19;100.00;96561.06;5065543;28;20071;-58
2022/04/04 03:56:01;;;;;;;13.57;11.18;;;;;;;-1.91;100.00;96553.81;5074210;28;20082;-58
2022/04/04 03:58:31;;;;;;;14.75;11.25;;;;;;;-1.92;100.00;96551.28;5063509;28;20079;-58
2022/04/04 04:00:59;;;;;;;14.80;11.00;;;;;;;-2.56;100.00;96561.72;5067439;28;20522;-60
2022/04/04 04:03:27;;;;;;;15.30;10.55;;;;;;;-2.41;100.00;96555.94;5067490;28;20071;-59
2022/04/04 04:06:11;;;;;;;13.73;10.35;;;;;;;-2.32;100.00;96550.41;5070054;28;20072;-58
2022/04/04 04:08:40;;;;;;;14.23;10.43;;;;;;;-2.84;100.00;96559.41;5047698;28;20045;-61
2022/04/04 04:11:09;;;;;;;13.02;10.82;;;;;;;-2.61;100.00;96553.34;5067391;28;20064;-59
2022/04/04 04:13:38;;;;;;;13.57;10.57;;;;;;;-2.56;100.00;96554.00;5066717;28;20056;-59
2022/04/04 04:16:09;;;;;;;15.50;11.48;;;;;;;-2.62;100.00;96562.81;5069475;28;20578;-57
2022/04/04 04:18:37;;;;;;;14.70;10.48;;;;;;;-2.47;100.00;96561.38;5073067;28;20067;-60
2022/04/04 04:21:06;;;;;;;14.77;10.82;;;;;;;-2.75;100.00;96564.19;5068305;28;20154;-58
2022/04/04 04:23:42;;;;;;;12.45;10.63;;;;;;;-2.92;100.00;96563.16;5069278;28;20091;-54
2022/04/04 04:26:13;;;;;;;17.30;11.75;;;;;;;-2.54;100.00;96557.34;5069714;28;20068;-57
2022/04/04 04:28:44;;;;;;;12.40;10.65;;;;;;;-2.50;100.00;96548.59;5062907;28;20079;-59
2022/04/04 04:31:12;;;;;;;13.93;11.15;;;;;;;-2.34;100.00;96552.22;5063289;28;20064;-60
2022/04/04 04:33:41;;;;;;;15.20;11.45;;;;;;;-2.26;100.00;96557.91;5062977;28;20056;-59
2022/04/04 04:36:09;;;;;;;15.55;11.65;;;;;;;-2.43;100.00;96552.59;5069316;28;20088;-57
2022/04/04 04:38:37;;;;;;;16.58;10.80;;;;;;;-2.41;100.00;96553.34;5077063;28;20067;-60
2022/04/04 04:41:06;;;;;;;13.35;10.95;;;;;;;-2.48;100.00;96554.50;5066086;28;20056;-58
2022/04/04 04:43:34;;;;;;;12.32;10.52;;;;;;;-2.57;100.00;96560.91;5068579;28;20076;-59
2022/04/04 04:46:04;;;;;;;12.95;10.95;;;;;;;-2.40;100.00;96558.47;5069197;28;20470;-58
2022/04/04 04:48:32;;;;;;;14.37;10.73;;;;;;;-2.37;100.00;96554.94;5067064;28;20509;-60
2022/04/04 04:51:01;;;;;;;18.85;11.27;;;;;;;-2.52;100.00;96560.69;5069548;28;20174;-58
2022/04/04 04:53:29;;;;;;;13.93;11.07;;;;;;;-2.60;100.00;96555.84;5048356;28;20436;-60
2022/04/04 04:55:57;;;;;;;16.00;11.15;;;;;;;-2.54;100.00;96559.94;5063846;28;20067;-58
2022/04/04 04:58:25;;;;;;;14.85;10.80;;;;;;;-2.70;100.00;96563.13;5066962;28;20060;-59
2022/04/04 05:00:54;;;;;;;15.00;10.85;;;;;;;-2.34;100.00;96556.53;5068541;28;20086;-59
2022/04/04 05:03:26;;;;;;;13.20;10.93;;;;;;;-2.13;100.00;96554.78;5068438;28;20076;-58
2022/04/04 05:05:55;;;;;;;13.80;11.00;;;;;;;-2.07;100.00;96550.19;5067710;28;20109;-59
2022/04/04 05:08:23;;;;;;;15.20;11.20;;;;;;;-2.10;100.00;96546.91;5066545;28;20060;-60
2022/04/04 05:10:52;;;;;;;15.55;11.30;;;;;;;-2.33;100.00;96550.47;5068759;28;20070;-56
2022/04/04 05:13:38;;;;;;;13.32;11.32;;;;;;;-1.78;100.00;96546.38;5066785;28;20354;-59
2022/04/04 05:16:10;;;;;;;15.55;12.02;;;;;;;-1.40;100.00;96538.63;5068920;28;20494;-57
2022/04/04 05:18:42;;;;;;;15.45;11.35;;;;;;;-1.28;100.00;96537.22;5068621;28;20100;-56
2022/04/04 05:21:11;;;;;;;16.25;11.02;;;;;;;-1.36;100.00;96540.19;5068862;28;20575;-57
2022/04/04 05:23:41;;;;;;;14.43;10.68;;;;;;;-1.53;100.00;96546.09;5062437;28;20088;-57
2022/04/04 05:26:10;;;;;;;13.30;10.43;;;;;;;-1.15;100.00;96546.09;5062548;28;20076;-59
2022/04/04 05:28:39;;;;;;;15.45;10.90;;;;;;;-1.29;100.00;96553.66;5061315;28;20466;-60
2022/04/04 05:31:08;;;;;;;13.10;10.40;;;;;;;-1.37;100.00;96551.44;5068417;28;20067;-57
2022/04/04 05:33:37;;;;;;;12.98;10.35;;;;;;;-1.07;100.00;96546.56;5068307;28;20064;-59
2022/04/04 05:36:07;;;;;;;13.70;11.05;;;;;;;-1.06;100.00;96547.44;5068686;28;20072;-60
2022/04/04 05:38:35;;;;;;;11.88;9.85;;;;;;;-1.07;100.00;96550.91;5062351;28;20068;-59
2022/04/04 05:41:03;;;;;;;13.07;10.52;;;;;;;-0.72;100.00;96546.69;5068127;28;20063;-58
2022/04/04 05:43:32;;;;;;;13.55;10.93;;;;;;;-0.51;100.00;96550.81;5062619;28;20061;-57
2022/04/04 05:46:00;;;;;;;14.23;10.82;;;;;;;-0.62;100.00;96554.81;5068460;28;20376;-60
2022/04/04 05:48:30;;;;;;;17.20;11.73;;;;;;;-0.40;100.00;96549.47;5063747;28;20083;-58
2022/04/04 05:50:59;;;;;;;12.70;10.40;;;;;;;-0.64;100.00;96538.53;5067089;28;20076;-56
2022/04/04 05:53:28;;;;;;;18.67;11.40;;;;;;;-0.45;100.00;96554.84;5067762;28;20552;-59
2022/04/04 05:55:57;;;;;;;15.80;10.93;;;;;;;-0.23;100.00;96553.81;5068397;28;20079;-57
2022/04/04 05:58:25;;;;;;;17.67;10.95;;;;;;;-0.17;100.00;96561.25;5065231;28;20064;-58
2022/04/04 06:00:53;;;;;;;16.08;11.20;;;;;;;-0.39;100.00;96558.91;5067973;28;20071;-57
2022/04/04 06:03:21;;;;;;;15.43;10.70;;;;;;;-0.15;100.00;96557.69;5067812;28;20083;-58
2022/04/04 06:05:51;;;;;;;15.18;11.25;;;;;;;-0.09;100.00;96557.38;5061780;28;20095;-55
2022/04/04 06:08:20;;;;;;;14.38;11.07;;;;;;;0.08;100.00;96558.28;5067917;28;20087;-55
2022/04/04 06:10:50;;;;;;;17.10;11.60;;;;;;;0.31;100.00;96564.88;5068089;28;20116;-59
2022/04/04 06:13:19;;;;;;;14.07;11.00;;;;;;;-0.17;100.00;96553.47;5067816;28;20060;-57
2022/04/04 06:15:48;;;;;;;14.57;11.60;;;;;;;0.04;100.00;96567.16;5068139;28;20053;-57
2022/04/04 06:18:16;;;;;;;13.35;10.48;;;;;;;0.25;100.00;96563.44;5067906;28;20592;-58
2022/04/04 06:20:45;;;;;;;15.60;10.77;;;;;;;-0.01;100.00;96567.34;5068422;28;20084;-59
2022/04/04 06:23:13;;;;;;;13.38;10.48;;;;;;;0.26;100.00;96565.13;5066915;28;20072;-58
2022/04/04 06:25:41;;;;;;;10.95;8.50;;;;;;;-0.11;100.00;96564.38;5068059;28;20075;-59
2022/04/04 06:28:12;;;;;;;12.73;9.55;;;;;;;0.07;100.00;96565.22;5066730;28;20068;-60
2022/04/04 06:30:40;;;;;;;13.93;9.18;;;;;;;0.04;100.00;96567.97;5065427;28;20059;-60
2022/04/04 06:33:09;;;;;;;14.30;10.13;;;;;;;0.19;100.00;96563.75;5067799;28;20099;-54
2022/04/04 06:35:37;;;;;;;14.25;9.40;;;;;;;0.42;100.00;96563.41;5068288;28;20091;-59
2022/04/04 06:38:05;;;;;;;15.70;9.85;;;;;;;0.74;100.00;96567.81;5067544;28;20060;-59
2022/04/04 06:40:33;;;;;;;9.77;8.30;;;;;;;0.30;100.00;96558.84;5067003;28;20064;-57
2022/04/04 06:43:02;;;;;;;12.07;8.63;;;;;;;0.68;100.00;96563.78;5068039;28;20076;-56
2022/04/04 06:45:32;;;;;;;15.05;9.55;;;;;;;0.89;100.00;96566.97;5066886;28;20068;-60
2022/04/04 06:48:00;;;;;;;12.43;9.90;;;;;;;1.12;100.00;96551.00;5071646;28;20113;-57
2022/04/04 06:50:30;;;;;;;13.02;8.88;;;;;;;1.04;100.00;96555.78;5067486;28;20448;-59
2022/04/04 06:52:58;;;;;;;10.63;8.23;;;;;;;1.31;100.00;96550.00;5071404;28;20087;-57
2022/04/04 06:55:44;;;;;;;11.60;8.45;;;;;;;1.34;100.00;96552.38;5065940;28;20080;-60
2022/04/04 06:58:13;;;;;;;11.40;8.48;;;;;;;0.88;100.00;96560.13;5071470;28;20538;-59
2022/04/04 07:00:42;;;;;;;13.48;8.63;;;;;;;1.31;100.00;96540.44;5066565;28;20094;-59
2022/04/04 07:03:11;;;;;;;11.40;8.07;;;;;;;1.74;100.00;96540.56;5068867;28;20080;-59
2022/04/04 07:05:40;;;;;;;10.23;8.18;;;;;;;1.49;100.00;96537.72;5071182;28;20118;-59
2022/04/04 07:08:09;;;;;;;10.40;7.80;;;;;;;1.63;100.00;96535.16;5071111;28;20060;-58
2022/04/04 07:10:38;;;;;;;9.80;7.60;;;;;;;1.59;100.00;96531.91;5067153;28;20072;-60
2022/04/04 07:13:06;;;;;;;11.65;7.47;;;;;;;1.80;100.00;96540.22;5071019;28;20068;-58
2022/04/04 07:15:35;;;;;;;8.85;7.40;;;;;;;1.92;100.00;96537.84;5070839;28;20064;-60
2022/04/04 07:18:05;;;;;;;9.20;6.93;;;;;;;1.92;100.00;96535.22;5071107;28;20054;-59
2022/04/04 07:20:33;;;;;;;9.80;7.28;;;;;;;2.14;100.00;96527.84;5069038;28;20080;-57
2022/04/04 07:23:01;;;;;;;6.97;5.57;;;;;;;1.54;100.00;96526.13;5070911;28;20075;-57
2022/04/04 07:25:30;;;;;;;8.50;7.13;;;;;;;2.01;100.00;96532.09;5069553;28;20060;-58
2022/04/04 07:27:58;;;;;;;6.43;5.47;;;;;;;1.75;100.00;96528.41;5070937;28;20064;-59
2022/04/04 07:30:27;;;;;;;10.25;7.80;;;;;;;1.98;100.00;96524.47;5070468;28;20064;-60
2022/04/04 07:32:55;;;;;;;7.32;6.28;;;;;;;2.04;100.00;96522.34;5071041;28;20107;-59
2022/04/04 07:35:25;;;;;;;7.97;6.90;;;;;;;2.23;100.00;96511.69;5070296;28;20069;-53
2022/04/04 07:37:53;;;;;;;9.93;6.70;;;;;;;2.40;100.00;96521.06;5070106;28;20515;-55
2022/04/04 07:40:21;;;;;;;10.00;6.00;;;;;;;2.08;100.00;96523.00;5070220;28;20076;-59
2022/04/04 07:42:50;;;;;;;8.27;6.55;;;;;;;2.95;100.00;96520.25;5070653;28;20040;-58
2022/04/04 07:45:19;;;;;;;9.40;6.63;;;;;;;2.95;100.00;96516.81;5065922;28;20083;-54
2022/04/04 07:47:49;;;;;;;6.93;5.72;;;;;;;2.92;100.00;96523.06;5070421;28;20091;-59
2022/04/04 07:50:17;;;;;;;7.90;6.22;;;;;;;3.04;100.00;96517.09;5066910;28;20702;-59
2022/04/04 07:52:47;;;;;;;8.63;6.47;;;;;;;3.43;100.00;96519.84;5070045;28;20064;-54
2022/04/04 07:55:16;;;;;;;7.40;5.80;;;;;;;3.26;100.00;96520.94;5070363;28;20542;-57
2022/04/04 07:57:44;;;;;;;6.22;5.60;;;;;;;3.67;97.10;96520.84;5068944;28;20072;-58
2022/04/04 08:00:17;;;;;;;6.13;5.30;;;;;;;3.22;100.00;96514.25;5069359;28;20107;-60
2022/04/04 08:02:45;;;;;;;8.02;5.80;;;;;;;3.43;92.65;96523.28;5070788;28;20084;-58
2022/04/04 08:05:14;;;;;;;6.47;5.88;;;;;;;3.52;80.82;96517.47;5069860;28;20068;-59
2022/04/04 08:07:44;;;;;;;5.13;4.53;;;;;;;3.47;96.11;96513.50;5069004;28;20099;-61
2022/04/04 08:10:14;;;;;;;6.85;5.40;;;;;;;3.37;86.94;96510.66;5069800;28;20056;-60
2022/04/04 08:12:43;;;;;;;5.00;4.50;;;;;;;3.60;100.00;96505.72;5070052;28;20052;-60
2022/04/04 08:15:11;;;;;;;7.65;5.88;;;;;;;3.47;86.51;96508.28;5064450;28;20091;-60
2022/04/04 08:17:40;;;;;;;12.85;6.28;;;;;;;3.70;81.89;96505.00;5069691;28;20080;-61
2022/04/04 08:20:09;;;;;;;6.03;5.40;;;;;;;4.02;78.64;96502.84;5065204;28;20064;-61
2022/04/04 08:22:38;;;;;;;6.28;5.22;;;;;;;3.96;81.51;96500.69;5063583;28;20072;-60
2022/04/04 08:25:08;;;;;;;6.55;5.68;;;;;;;3.47;92.08;96501.28;5063994;28;20102;-60
2022/04/04 08:27:37;;;;;;;5.95;4.97;;;;;;;3.50;81.67;96501.09;5063416;28;20429;-61
2022/04/04 08:30:08;;;;;;;7.67;5.10;;;;;;;3.77;88.91;96500.22;5065979;28;20072;-59
2022/04/04 08:32:37;;;;;;;7.13;5.10;;;;;;;3.59;96.14;96501.44;5070096;28;20094;-60
2022/04/04 08:35:06;;;;;;;8.82;5.10;;;;;;;3.85;84.19;96490.09;5069087;28;20064;-60
2022/04/04 08:37:35;;;;;;;5.63;4.75;;;;;;;3.54;77.53;96492.16;5070206;28;20098;-58
2022/04/04 08:40:04;;;;;;;5.70;5.10;;;;;;;3.70;68.62;96486.75;5072848;28;20466;-60
2022/04/04 08:42:32;;;;;;;5.90;4.65;;;;;;;3.43;81.97;96489.41;5069279;28;20065;-59
2022/04/04 08:45:03;;;;;;;6.10;5.10;;;;;;;3.73;75.46;96489.16;5069770;28;20091;-58
2022/04/04 08:47:32;;;;;;;;;;;;;;;3.82;81.71;96479.91;5069768;28;20514;-60
2022/04/04 08:50:02;;;;;;;7.30;5.07;;;;;;;3.74;86.42;96483.00;5063281;28;20346;-60
2022/04/04 08:52:30;;;;;;;5.68;5.07;;;;;;;3.75;72.97;96486.44;5068877;28;20036;-56
2022/04/04 08:54:58;;;;;;;6.13;5.50;;;;;;;3.97;79.34;96473.63;5065881;28;20071;-57
2022/04/04 08:57:27;;;;;;;5.90;5.30;;;;;;;4.16;71.43;96485.44;5069378;28;20063;-59
2022/04/04 08:59:55;;;;;;;6.00;4.93;;;;;;;3.78;72.19;96479.25;5067278;28;20084;-58
2022/04/04 09:02:24;;;;;;;6.53;5.38;;;;;;;3.97;71.33;96478.84;5069337;28;20068;-60
2022/04/04 09:04:53;;;;;;;5.97;5.18;;;;;;;4.30;76.87;96477.47;5068871;28;20451;-59
2022/04/04 09:07:22;;;;;;;6.80;5.40;;;;;;;4.57;70.47;96473.91;5069212;28;20111;-60
2022/04/04 09:09:52;;;;;;;5.53;5.00;;;;;;;4.80;69.42;96460.06;5065406;28;20435;-58
2022/04/04 09:12:22;;;;;;;8.32;5.47;;;;;;;4.51;69.57;96456.91;5069136;28;20102;-55
2022/04/04 09:14:52;;;;;;;7.95;5.78;;;;;;;4.96;64.38;96444.97;5069454;28;20497;-60
2022/04/04 09:17:23;;;;;;;5.47;4.30;;;;;;;4.55;82.13;96447.09;5068823;28;20064;-57
2022/04/04 09:19:52;;;;;;;4.50;4.10;;;;;;;4.05;77.18;96458.28;5068762;28;20064;-60
2022/04/04 09:22:22;;;;;;;4.63;4.18;;;;;;;4.36;96.45;96455.34;5069005;28;20068;-60
2022/04/04 09:24:52;;;;;;;8.43;5.50;;;;;;;5.10;67.50;96445.75;5068910;28;20067;-57
2022/04/04 09:27:24;;;;;;;;;;;;;;;4.47;87.92;96437.16;5069081;28;20087;-60
2022/04/04 09:29:54;;;;;;;5.95;5.35;;;;;;;4.59;75.06;96432.88;5065018;28;20322;-59
2022/04/04 09:32:23;;;;;;;7.38;4.90;;;;;;;5.09;93.49;96431.00;5068593;28;20475;-58
2022/04/04 09:35:08;;;;;;;5.97;4.63;;;;;;;4.95;65.46;96429.38;5071007;28;20457;-60
2022/04/04 09:37:38;;;;;;;5.35;4.82;;;;;;;4.97;78.01;96420.50;5068488;28;20087;-58
2022/04/04 09:40:10;;;;;;;5.82;5.10;;;;;;;5.16;62.90;96425.22;5068121;28;20056;-58
2022/04/04 09:42:42;;;;;;;5.90;5.30;;;;;;;4.74;63.65;96423.91;5065383;28;20064;-59
2022/04/04 09:45:12;;;;;;;4.50;4.05;;;;;;;4.70;93.12;96407.63;5065078;28;20071;-55
2022/04/04 09:47:54;;;;;;;5.72;5.20;;;;;;;4.47;74.50;96419.75;5069161;28;20084;-59
2022/04/04 09:50:35;;;;;;;4.40;4.03;;;;;;;4.51;85.87;96408.13;5060355;28;20068;-58
2022/04/04 09:53:11;;;;;;;5.22;4.72;;;;;;;5.18;95.53;96404.19;5064179;28;20075;-59
2022/04/04 09:55:41;;;;;;;6.10;5.45;;;;;;;5.06;85.37;96397.25;5068002;28;20060;-58
2022/04/04 09:58:13;;;;;;;7.85;6.15;;;;;;;5.55;91.52;96391.00;5068512;28;20091;-56
2022/04/04 10:00:44;;;;;;;5.82;4.82;;;;;;;5.19;100.00;96392.78;5067949;28;20147;-59
2022/04/04 10:03:13;;;;;;;4.75;3.70;;;;;;;4.98;100.00;96382.13;5068440;28;20092;-56
2022/04/04 10:05:44;;;;;;;4.75;4.30;;;;;;;5.07;100.00;96388.47;5065625;28;20076;-60
2022/04/04 10:08:15;;;;;;;6.90;5.65;;;;;;;5.33;91.63;96374.28;5068513;28;20071;-59
2022/04/04 10:10:43;;;;;;;5.22;4.72;;;;;;;5.07;81.60;96380.63;5068002;28;20069;-59
2022/04/04 10:13:14;;;;;;;6.15;5.43;;;;;;;5.11;91.53;96374.22;5068634;28;20075;-60
2022/04/04 10:15:43;;;;;;;5.18;4.68;;;;;;;5.28;100.00;96365.97;5063679;28;20067;-59
2022/04/04 10:18:11;;;;;;;6.78;5.15;;;;;;;5.40;100.00;96356.38;5068463;28;20087;-58
2022/04/04 10:20:43;;;;;;;7.07;5.78;;;;;;;5.49;100.00;96360.91;5064574;28;20709;-60
2022/04/04 10:23:13;;;;;;;6.55;5.82;;;;;;;5.38;91.05;96353.88;5071726;28;20079;-60
2022/04/04 10:25:42;;;;;;;6.80;5.95;;;;;;;5.24;90.55;96354.09;5069361;28;20067;-58
2022/04/04 10:28:10;;;;;;;6.80;5.60;;;;;;;5.39;87.89;96344.25;5072091;28;20072;-60
2022/04/04 10:30:40;;;;;;;6.13;5.28;;;;;;;5.38;100.00;96347.81;5073608;28;20082;-60
2022/04/04 10:33:18;;;;;;;7.35;5.97;;;;;;;5.58;99.83;96341.91;5067429;28;20088;-57
2022/04/04 10:36:01;;;;;;;8.25;5.18;;;;;;;5.14;95.09;96334.81;5067115;28;20086;-60
2022/04/04 10:38:30;;;;;;;7.75;6.50;;;;;;;5.69;80.52;96326.22;5051704;28;20045;-59
2022/04/04 10:40:59;;;;;;;7.30;5.80;;;;;;;6.14;100.00;96323.63;5067818;28;20068;-60
2022/04/04 10:43:31;;;;;;;5.97;4.72;;;;;;;5.73;100.00;96316.34;5071499;28;20520;-56
2022/04/04 10:46:01;;;;;;;6.45;5.70;;;;;;;5.74;80.20;96311.94;5065739;28;20084;-58
2022/04/04 10:48:31;;;;;;;8.15;5.88;;;;;;;6.14;100.00;96299.25;5064086;28;20151;-58
2022/04/04 10:51:11;;;;;;;7.03;5.72;;;;;;;6.10;100.00;96298.66;5069226;28;20083;-57
2022/04/04 10:53:43;;;;;;;5.47;4.95;;;;;;;6.38;100.00;96289.44;5064543;28;20526;-56
2022/04/04 10:56:13;;;;;;;5.72;5.13;;;;;;;6.01;89.17;96291.50;5065562;28;20478;-58
2022/04/04 10:58:42;;;;;;;5.30;4.80;;;;;;;5.99;100.00;96282.97;5071004;28;20064;-57
2022/04/04 11:01:15;;;;;;;6.10;5.38;;;;;;;6.02;100.00;96287.09;5071279;28;20053;-58
2022/04/04 11:03:58;;;;;;;7.28;5.75;;;;;;;6.27;100.00;96280.78;5071139;28;20067;-56
2022/04/04 11:09:36;;;;;;;6.45;5.85;;;;;;;5.32;100.00;96272.44;5069511;28;20057;-58
2022/04/04 11:12:13;;;;;;;7.82;5.30;;;;;;;6.01;100.00;96270.56;5071075;28;20095;-55
2022/04/04 11:14:54;;;;;;;7.15;5.88;;;;;;;5.60;100.00;96264.16;5071442;28;20110;-59
2022/04/04 11:17:30;;;;;;;7.93;6.00;;;;;;;5.61;100.00;96260.59;5070812;28;20072;-59
2022/04/04 11:20:04;;;;;;;8.52;6.28;;;;;;;5.96;100.00;96264.06;5064670;28;20069;-61
2022/04/04 11:22:37;;;;;;;8.30;6.10;;;;;;;5.95;100.00;96250.13;5069874;28;20064;-58
2022/04/04 11:25:07;;;;;;;8.38;6.72;;;;;;;6.02;100.00;96245.22;5070372;28;20090;-60
2022/04/04 11:27:37;;;;;;;8.68;6.28;;;;;;;6.08;100.00;96237.72;5070904;28;20072;-54
2022/04/04 11:30:07;;;;;;;5.82;4.63;;;;;;;6.02;100.00;96237.38;5070473;28;20099;-59
2022/04/04 11:32:40;;;;;;;8.68;7.05;;;;;;;6.51;100.00;96242.13;5070869;28;20510;-60
2022/04/04 11:35:11;;;;;;;7.55;6.25;;;;;;;6.09;100.00;96242.03;5070029;28;20067;-57
2022/04/04 11:37:47;;;;;;;7.20;5.93;;;;;;;6.36;100.00;96225.84;5070256;28;20521;-60